This is the latest recevied weather packets stored in our database for station/object KG2V. If no packets are shown the sender has not sent any weather packets the latest 1 day(s).
| Time | Temp. | Humidity | Pressure | Rain* | Wind** | Luminosity | Snow |
|---|---|---|---|---|---|---|---|
| 1836274772 | 8.33° C | 94% | 1019 hPa | 0 mm | 0 m/s | 0 W/m² | - |
| 1836274470 | 8.33° C | 94% | 1018.8 hPa | 0 mm | 0 m/s | 0 W/m² | - |
| 1836274324 | 8.33° C | 94% | 1019 hPa | 0 mm | 0 m/s | 0 W/m² | - |
| 1836274168 | 8.89° C | 93% | 1019.1 hPa | 0 mm | 0 m/s | 0 W/m² | - |
| 1836273863 | 8.89° C | 93% | 1018.8 hPa | 0 mm | 0 m/s | 0 W/m² | - |
| 1778054333 | 6.67° C | 99% | 1004.4 hPa | 3.05 mm | 0 m/s | 0 W/m² | - |
| 1778054030 | 6.67° C | 99% | 1004.2 hPa | 1.27 mm | 0.45 m/s, 104° | 0 W/m² | - |
| 1778053727 | 6.67° C | 99% | 1003.8 hPa | 3.05 mm | 0.45 m/s, 107° | 0 W/m² | - |
| 1778053423 | 6.67° C | 99% | 1004.7 hPa | 3.05 mm | 0 m/s | 0 W/m² | - |
| 1778053121 | 6.67° C | 99% | 1004.7 hPa | 3.05 mm | 0.45 m/s, 129° | 0 W/m² | - |
| 1778052819 | 7.22° C | 99% | 1004.5 hPa | 3.05 mm | 0 m/s | 0 W/m² | - |
| 1778052515 | 7.22° C | 99% | 1004.5 hPa | 3.05 mm | 0.45 m/s, 122° | 0 W/m² | - |
| 1778052213 | 7.22° C | 99% | 1004.5 hPa | 3.56 mm | 0.45 m/s, 107° | 0 W/m² | - |
| 1778051911 | 7.22° C | 99% | 1004.4 hPa | 3.05 mm | 0 m/s | 0 W/m² | - |
| 1778051610 | 7.22° C | 99% | 1004.6 hPa | 4.32 mm | 0 m/s | 0 W/m² | - |
| 1778051306 | 7.22° C | 99% | 1004.7 hPa | 3.05 mm | 0 m/s | 0 W/m² | - |
| 1778051003 | 7.22° C | 99% | 1004.3 hPa | 3.05 mm | 0 m/s | 0 W/m² | - |
| 1778050700 | 7.78° C | 99% | 1004.4 hPa | 3.05 mm | 0 m/s | 0 W/m² | - |
| 1778050397 | 7.78° C | 99% | 1004.6 hPa | 1.78 mm | 0 m/s | 0 W/m² | - |
| 1778050094 | 7.78° C | 99% | 1004.7 hPa | 1.27 mm | 0 m/s | 0 W/m² | - |
| 1778049789 | 7.78° C | 99% | 1004.6 hPa | 3.05 mm | 0.45 m/s, 107° | 0 W/m² | - |
| 1778049487 | 7.78° C | 99% | 1004.7 hPa | 3.05 mm | 0.45 m/s, 107° | 0 W/m² | - |
| 1778049184 | 7.78° C | 99% | 1004.7 hPa | 3.05 mm | 0.45 m/s, 124° | 0 W/m² | - |
| 1778048883 | 7.78° C | 99% | 1004.6 hPa | 3.05 mm | 0 m/s | 0 W/m² | - |
| 1778048580 | 7.78° C | 99% | 1004.7 hPa | 4.83 mm | 0.45 m/s, 22° | 0 W/m² | - |
* Rain latest hour (hover to see other rain measurements)
** Current wind speed in m/s (hover to see current wind gust speed)